createdAt,value
2019-06-01T00:01:18.342Z,38.4
2019-06-01T00:06:29.909Z,39.2
2019-06-01T00:11:49.625Z,39.5
2019-06-01T00:17:01.257Z,38.4
2019-06-01T00:22:12.263Z,38.4
2019-06-01T00:27:23.573Z,39.1
2019-06-01T00:32:35.131Z,39.3
2019-06-01T00:37:48.014Z,39
2019-06-01T00:42:59.303Z,38.5
2019-06-01T00:48:10.867Z,38.5
2019-06-01T00:53:22.440Z,39.2
2019-06-01T00:58:34.010Z,38.6
2019-06-01T01:03:55.038Z,38.6
2019-06-01T01:09:06.623Z,39.8
2019-06-01T01:14:24.205Z,38.4
2019-06-01T01:19:35.777Z,38.4
2019-06-01T01:24:48.430Z,38.6
2019-06-01T01:29:59.988Z,39
2019-06-01T01:35:12.612Z,38.4
2019-06-01T01:40:24.138Z,38.6
2019-06-01T01:45:35.717Z,39
2019-06-01T01:50:47.291Z,38.8
2019-06-01T01:56:21.948Z,38.7
2019-06-01T02:01:24.254Z,38.7
2019-06-01T02:06:35.819Z,38.6
2019-06-01T02:11:47.626Z,39.4
2019-06-01T02:17:03.543Z,39.7
2019-06-01T02:22:15.108Z,38.8
2019-06-01T02:29:04.810Z,39.3
2019-06-01T02:34:16.386Z,38.7
2019-06-01T02:39:27.978Z,39.9
2019-06-01T02:44:39.555Z,39.5
2019-06-01T02:55:14.233Z,39
2019-06-01T03:00:25.809Z,38.3
2019-06-01T03:05:36.825Z,38.4
2019-06-01T03:10:48.108Z,39
2019-06-01T03:16:00.370Z,38.9
2019-06-01T03:21:12.611Z,39.8
2019-06-01T03:26:24.183Z,39.8
2019-06-01T03:31:35.477Z,39.3
2019-06-01T03:36:46.478Z,39.6
2019-06-01T03:41:58.045Z,39.9
2019-06-01T03:47:11.858Z,39.9
2019-06-01T03:52:24.294Z,38.8
2019-06-01T03:57:39.080Z,38.6
2019-06-01T04:02:50.651Z,39.5
2019-06-01T04:08:03.337Z,38.8
2019-06-01T04:13:14.672Z,38.9
2019-06-01T04:18:26.234Z,39.2
2019-06-01T04:23:37.519Z,38.7
2019-06-01T04:28:48.569Z,39.3
2019-06-01T04:33:59.866Z,38.2
2019-06-01T04:39:14.189Z,38.1
2019-06-01T04:44:34.379Z,39.5
2019-06-01T04:49:45.954Z,39.5
2019-06-01T04:54:57.239Z,39.2
2019-06-01T05:00:36.781Z,40.1
2019-06-01T05:05:48.285Z,39.3
2019-06-01T05:11:16.908Z,38.9
2019-06-01T05:16:30.744Z,39.9
2019-06-01T05:21:52.872Z,39.1
2019-06-01T05:27:04.699Z,39.1
2019-06-01T05:32:18.811Z,38.9
2019-06-01T05:37:30.404Z,39.9
2019-06-01T05:42:42.190Z,39.1
2019-06-01T05:47:53.760Z,40
2019-06-01T05:53:14.974Z,40.1
2019-06-01T05:58:29.495Z,40
2019-06-01T06:03:41.465Z,39.3
2019-06-01T06:08:52.938Z,40.3
2019-06-01T06:14:04.535Z,39.6
2019-06-01T06:19:33.718Z,40.7
2019-06-01T06:26:10.356Z,38.8
2019-06-01T06:31:23.178Z,38.6
2019-06-01T06:36:34.801Z,37
2019-06-01T06:41:50.452Z,37.7
2019-06-01T06:47:02.116Z,37.7
2019-06-01T06:52:13.608Z,36.7
2019-06-01T06:57:26.235Z,36.5
2019-06-01T07:02:37.302Z,36.6
2019-06-01T07:07:49.364Z,37.6
2019-06-01T07:13:00.656Z,37.2
2019-06-01T07:18:11.953Z,37.9
2019-06-01T07:23:24.744Z,38.8
2019-06-01T07:28:36.754Z,38.9
2019-06-01T07:33:48.045Z,38.8
2019-06-01T07:38:59.049Z,38.8
2019-06-01T07:44:10.066Z,39
2019-06-01T07:49:22.975Z,38.5
2019-06-01T07:54:34.183Z,38.9
2019-06-01T07:59:45.762Z,38.5
2019-06-01T08:04:56.547Z,38.8
2019-06-01T08:10:07.801Z,39
2019-06-01T08:15:19.359Z,38.1
2019-06-01T08:20:32.656Z,37.9
2019-06-01T08:25:49.289Z,38.7
2019-06-01T08:31:00.530Z,37.9
2019-06-01T08:36:11.828Z,35.5
2019-06-01T08:41:25.492Z,34.9
2019-06-01T08:46:37.105Z,35.6
2019-06-01T08:51:50.427Z,36.5
2019-06-01T08:57:01.446Z,37.5
2019-06-01T09:02:13.024Z,36.9
2019-06-01T09:07:26.792Z,37.7
2019-06-01T09:12:38.101Z,37.2
2019-06-01T09:17:49.392Z,36.4
2019-06-01T09:23:00.403Z,36.2
2019-06-01T09:28:11.964Z,36.5
2019-06-01T09:33:23.259Z,35.3
2019-06-01T09:38:35.795Z,34.7
2019-06-01T09:43:47.283Z,36.2
2019-06-01T09:48:58.573Z,37.8
2019-06-01T09:54:09.582Z,37.6
2019-06-01T09:59:21.154Z,36.7
2019-06-01T10:04:34.353Z,37.7
2019-06-01T10:09:48.577Z,36.2
2019-06-01T10:14:59.877Z,36.7
2019-06-01T10:20:10.890Z,36.6
2019-06-01T10:25:21.884Z,36.5
2019-06-01T10:30:36.227Z,36.5
2019-06-01T10:35:47.770Z,36.8
2019-06-01T10:40:59.333Z,35.1
2019-06-01T10:46:10.900Z,36.1
2019-06-01T10:51:22.468Z,35
2019-06-01T10:56:36.247Z,36.6
2019-06-01T11:01:47.562Z,37
2019-06-01T11:06:59.193Z,36.8
2019-06-01T11:12:10.516Z,35.1
2019-06-01T11:17:22.099Z,36.3
2019-06-01T11:22:35.702Z,35.7
2019-06-01T11:27:46.395Z,34.7
2019-06-01T11:32:57.979Z,36.2
2019-06-01T11:38:09.530Z,36.5
2019-06-01T11:43:21.101Z,37.1
2019-06-01T11:48:32.109Z,37.2
2019-06-01T11:53:46.125Z,36.9
2019-06-01T11:58:57.405Z,37.4
2019-06-01T12:04:08.145Z,38.1
2019-06-01T12:09:19.719Z,38.3
2019-06-01T12:14:31.277Z,37.5
2019-06-01T12:19:44.657Z,37.7
2019-06-01T12:24:56.292Z,37.5
2019-06-01T12:30:07.565Z,37.3
2019-06-01T12:35:19.215Z,37.1
2019-06-01T12:40:30.791Z,37
2019-06-01T12:45:46.229Z,36.3
2019-06-01T12:50:59.345Z,37.1
2019-06-01T12:56:16.431Z,36.7
2019-06-01T13:01:32.025Z,37.6
2019-06-01T13:06:44.628Z,37.3
2019-06-01T13:12:07.951Z,36.9
2019-06-01T13:17:19.468Z,35.7
2019-06-01T13:22:30.744Z,35.6
2019-06-01T13:27:46.598Z,35.7
2019-06-01T13:32:58.165Z,35.6
2019-06-01T13:38:13.421Z,34.9
2019-06-01T13:43:24.149Z,35.6
2019-06-01T13:48:34.875Z,35.1
2019-06-01T13:53:48.206Z,35.2
2019-06-01T13:58:59.981Z,35.5
2019-06-01T14:04:10.990Z,35.8
2019-06-01T14:09:22.890Z,36.6
2019-06-01T14:14:33.897Z,35.5
2019-06-01T14:19:48.033Z,34.2
2019-06-01T14:25:15.452Z,34.4
2019-06-01T14:30:36.588Z,34
2019-06-01T14:35:50.081Z,33
2019-06-01T14:41:01.918Z,33.2
2019-06-01T14:46:13.481Z,33.2
2019-06-01T14:51:25.065Z,34.1
2019-06-01T14:56:36.641Z,33.4
2019-06-01T15:01:49.998Z,34.1
2019-06-01T15:07:01.328Z,33.5
2019-06-01T15:12:12.889Z,34.2
2019-06-01T15:17:24.452Z,34.4
2019-06-01T15:22:36.032Z,34.2
2019-06-01T15:27:47.312Z,34.1
2019-06-01T15:38:22.900Z,34.9
2019-06-01T15:43:34.511Z,35.1
2019-06-01T15:48:45.524Z,34.9
2019-06-01T15:53:58.946Z,36.3
2019-06-01T15:59:10.547Z,36.6
2019-06-01T16:04:22.114Z,37
2019-06-01T16:09:43.727Z,36.3
2019-06-01T16:14:56.092Z,37.3
2019-06-01T16:20:07.655Z,36.8
2019-06-01T16:25:19.234Z,37.7
2019-06-01T16:30:30.522Z,37.6
2019-06-01T16:35:42.077Z,37.2
2019-06-01T16:40:53.641Z,38
2019-06-01T16:46:06.175Z,37.8
2019-06-01T16:51:17.203Z,38
2019-06-01T16:56:28.765Z,37.3
2019-06-01T17:01:40.325Z,37.8
2019-06-01T17:06:51.893Z,38.2
2019-06-01T17:12:03.592Z,37.4
2019-06-01T17:17:18.614Z,38.2
2019-06-01T17:22:30.159Z,37.6
2019-06-01T17:27:41.776Z,38.5
2019-06-01T17:32:53.055Z,37.8
2019-06-01T17:38:07.044Z,37.7
2019-06-01T17:43:18.718Z,38.5
2019-06-01T17:48:29.731Z,38
2019-06-01T17:53:41.297Z,38.5
2019-06-01T17:58:56.553Z,37.8
2019-06-01T18:04:12.096Z,38.8
2019-06-01T18:09:23.199Z,38.3
2019-06-01T18:14:34.474Z,38.4
2019-06-01T18:19:46.105Z,39
2019-06-01T18:24:57.689Z,39.2
2019-06-01T18:30:10.861Z,39.5
2019-06-01T18:35:22.212Z,39.5
2019-06-01T18:40:33.775Z,39.1
2019-06-01T18:45:45.056Z,39.5
2019-06-01T18:50:55.791Z,38.6
2019-06-01T18:56:08.261Z,39.4
2019-06-01T19:01:21.631Z,38.9
2019-06-01T19:06:32.632Z,39.3
2019-06-01T19:11:44.207Z,39.4
2019-06-01T19:16:55.775Z,39.1
2019-06-01T19:22:08.341Z,39
2019-06-01T19:27:19.370Z,39.8
2019-06-01T19:32:30.403Z,39.2
2019-06-01T19:37:41.976Z,40
2019-06-01T19:42:55.606Z,39.9
2019-06-01T19:48:09.893Z,39.5
2019-06-01T19:53:21.260Z,40
2019-06-01T19:58:32.834Z,40.2
2019-06-01T20:03:44.135Z,39.6
2019-06-01T20:08:55.677Z,39.5
2019-06-01T20:14:07.241Z,40.4
2019-06-01T20:19:19.946Z,40.2
2019-06-01T20:24:31.194Z,39.8
2019-06-01T20:29:45.328Z,40.1
2019-06-01T20:34:56.610Z,40.6
2019-06-01T20:40:12.106Z,40.4
2019-06-01T20:50:47.862Z,39.8
2019-06-01T20:56:04.727Z,40.2
2019-06-01T21:01:19.677Z,40.1
2019-06-01T21:06:34.043Z,41
2019-06-01T21:17:16.457Z,40.4
2019-06-01T21:22:27.875Z,40
2019-06-01T21:27:39.119Z,40.1
2019-06-01T21:32:49.848Z,40.5
2019-06-01T21:38:01.150Z,41
2019-06-01T21:43:35.692Z,40.4
2019-06-01T21:48:49.827Z,41.1
2019-06-01T21:54:01.394Z,40.6
2019-06-01T21:59:12.978Z,41.2
2019-06-01T22:04:27.682Z,40.6
2019-06-01T22:09:39.223Z,41.3
2019-06-01T22:14:49.962Z,41.2
2019-06-01T22:20:01.532Z,41.3
2019-06-01T22:25:13.115Z,41.3
2019-06-01T22:30:26.386Z,41.5
2019-06-01T22:35:37.112Z,41.3
2019-06-01T22:40:48.682Z,40.5
2019-06-01T22:45:59.714Z,41.3
2019-06-01T22:51:11.263Z,41.4
2019-06-01T22:56:23.667Z,42
2019-06-01T23:01:35.229Z,42.5
2019-06-01T23:06:46.795Z,42.4
2019-06-01T23:11:58.081Z,41.6
2019-06-01T23:17:09.704Z,42.1
2019-06-01T23:22:22.336Z,42.1
2019-06-01T23:27:33.630Z,41.6
2019-06-01T23:32:44.921Z,42.5
2019-06-01T23:37:56.718Z,42.7
2019-06-01T23:43:08.284Z,42.9
2019-06-01T23:48:19.909Z,41.9
2019-06-01T23:53:33.695Z,42.1
2019-06-01T23:58:45.553Z,42.2
